• Join FlightAware (Why Join?)
  • Login
  • US Flag 
10:52AM EST


 

Airport Tracker/Info


-or-


 

Live Flight TrackerFlight Track Log ✈ UAL4679 ✈ 14-May-2013 ✈ KCLE - KMKE

Flight Track Log - Related Links

Times and Time Zones

All times are in EDT time to prevent confusion due to time zone crossing. See the UAL4679 flight status page for this flight to view local times or setup timezone preferences in your user account.

Time Position Orientation Groundspeed Altitude Reporting Facility
EDT Latitude Longitude Course Direction KTS MPH feet Rate Location/Type
07:53AM 41.3939 -81.8814 275° West 168 193 1,800  Level Cleveland Center
07:54AM 41.3975 -81.9339 275° West 196 226 3,000 2,100 Climbing Cleveland Center
07:55AM 41.3942 -82.0336 267° West 262 302 5,700 2,700 Climbing Cleveland Center
07:56AM 41.3786 -82.1161 256° West 257 296 8,600 2,220 Climbing Cleveland Center
07:57AM 41.3628 -82.2072 257° West 257 296 10,300 1,260 Climbing Cleveland Center
07:58AM 41.3444 -82.3172 258° West 276 318 11,200 1,260 Climbing Cleveland Center
07:59AM 41.3239 -82.4300 256° West 315 362 12,900 1,800 Climbing Cleveland Center
08:00AM 41.3239 -82.5436 270° West 313 360 14,800 1,680 Climbing Cleveland Center
08:01AM 41.3708 -82.6142 312° West 277 319 16,300 1,560 Climbing Cleveland Center
08:02AM 41.4278 -82.6822 318° Northwest 277 319 18,000 1,740 Climbing Cleveland Center
08:03AM 41.4828 -82.7506 317° Northwest 272 313 19,800 1,740 Climbing Cleveland Center
08:04AM 41.5378 -82.8192 317° Northwest 267 307 21,500 1,080 Climbing Cleveland Center
08:05AM 41.5947 -82.8933 316° Northwest 274 315 22,000 240 Climbing Cleveland Center
08:06AM 41.6658 -82.9847 316° Northwest 299 344 22,000  Level Cleveland Center
08:07AM 41.7369 -83.0736 317° Northwest 328 377 22,000  Level Cleveland Center
08:08AM 41.8100 -83.1683 316° Northwest 349 402 22,000  Level Cleveland Center
08:09AM 41.8850 -83.2608 317° Northwest 354 407 22,000  Level Cleveland Center
08:10AM 41.9578 -83.3558 316° Northwest 363 418 22,000  Level Cleveland Center
08:11AM 42.0283 -83.4483 316° Northwest 368 423 22,000  Level Cleveland Center
08:12AM 42.1031 -83.5414 317° Northwest 368 423 22,000  Level Cleveland Center
08:13AM 42.1656 -83.6283 314° West 368 423 22,000  Level Cleveland Center
08:14AM 42.2403 -83.7217 317° Northwest 368 423 22,000  Level Cleveland Center
08:15AM 42.3106 -83.8122 316° Northwest 368 423 22,000  Level Cleveland Center
08:16AM 42.3831 -83.9061 316° Northwest 368 423 22,000  Level Cleveland Center
08:17AM 42.4467 -84.0133 309° West 362 417 22,000  Level Cleveland Center
08:18AM 42.4908 -84.1369 296° West 362 417 22,000  Level Cleveland Center
08:19AM 42.5369 -84.2608 297° West 367 422 22,000  Level Cleveland Center
08:21AM 42.6392 -84.5369 297° West 364 419 22,000  Level Chicago Center
08:22AM 42.6922 -84.6850 296° West 364 419 22,000  Level Chicago Center
08:23AM 42.7375 -84.8100 296° West 368 423 22,000  Level Chicago Center
08:24AM 42.7814 -84.9333 296° West 365 420 22,000  Level Chicago Center
08:26AM 42.8264 -85.0578 296° West 368 423 22,000  Level Chicago Center
08:27AM 42.8706 -85.1833 296° West 367 422 22,000  Level Chicago Center
08:28AM 42.9150 -85.3083 296° West 368 423 22,000  Level Chicago Center
08:29AM 42.9681 -85.4589 296° West 369 425 22,000  Level Chicago Center
08:30AM 43.0117 -85.5844 295° West 370 426 22,000  Level Chicago Center
08:31AM 43.0553 -85.7094 296° West 368 423 22,000  Level Chicago Center
08:32AM 43.0989 -85.8344 296° West 369 425 22,000  Level Chicago Center
08:33AM 43.1497 -85.9822 295° West 370 426 22,000  Level Chicago Center
08:34AM 43.1683 -86.1183 281° West 380 437 22,000  Level Chicago Center
08:35AM 43.1672 -86.2639 269° West 387 445 22,000 -600 Level Chicago Center
08:36AM 43.1642 -86.4053 268° West 379 436 20,800 -1,320 Descending Chicago Center
08:37AM 43.1619 -86.5483 269° West 378 435 19,300 -1,620 Descending Chicago Center
08:38AM 43.1583 -86.7206 268° West 378 435 17,500 -1,680 Descending Chicago Center
08:39AM 43.1553 -86.8597 268° West 365 420 15,900 -1,680 Descending Chicago Center
08:40AM 43.1519 -86.9811 268° West 332 382 14,100 -1,320 Descending Chicago Center
08:41AM 43.1381 -87.0875 260° West 293 337 13,200 -1,080 Descending Chicago Center
08:42AM 43.1125 -87.1892 251° West 280 322 11,900 -1,380 Descending Chicago Center
08:43AM 43.0917 -87.2833 253° West 262 302 10,400 -1,620 Descending Chicago Center
08:44AM 43.0639 -87.3911 251° West 262 302 8,600 -1,560 Descending Chicago Center
08:45AM 43.0433 -87.4847 253° West 257 296 7,200 -1,020 Descending Chicago Center
08:46AM 43.0222 -87.5656 250° West 239 275 6,500 -1,260 Descending Chicago Center
08:47AM 43.0022 -87.6494 252° West 207 238 4,600 -1,380 Descending Chicago Center
08:48AM 43.0064 -87.7086 276° West 167 192 3,700 -780 Descending Chicago Center
08:49AM 42.9778 -87.7500 227° Southwest 155 178 3,000 -600 Descending Chicago Center
08:50AM 42.9681 -87.7917 252° West 125 144 2,500 -600 Descending Chicago Center
08:51AM 42.9611 -87.8294 256° West 110 127 1,800 -540 Descending Chicago Center
08:52AM 42.9511 -87.8708 252° West 110 127 1,500 -300 Descending Chicago Center
08:54AM 42.9333 -87.8833 236° Southwest  Level FlightAware Approximate
09:01AM 42.9469 -87.8971 236° Southwest  Level Estimated